Time;durP1;ratioP1;P1;durP2;ratioP2;P2;SDS_P1;SDS_P2;PMS_P1;PMS_P2;Temp;Humidity;BMP_temperature;BMP_pressure;BME280_temperature;BME280_humidity;BME280_pressure;Samples;Min_cycle;Max_cycle;Signal;HPM_P1;HPM_P2
2022/01/16 00:05:05;;;;;;;47.23;34.63;;;1.70;99.90;;;;;;5112885;28;20178;-58
2022/01/16 00:07:31;;;;;;;50.10;35.10;;;1.70;99.90;;;;;;5113511;28;20177;-58
2022/01/16 00:09:56;;;;;;;51.57;36.03;;;1.70;99.90;;;;;;5112331;28;20216;-58
2022/01/16 00:12:23;;;;;;;58.03;38.60;;;1.70;99.90;;;;;;5113724;28;20170;-58
2022/01/16 00:14:50;;;;;;;54.47;35.77;;;1.80;99.90;;;;;;5113623;28;20185;-58
2022/01/16 00:17:17;;;;;;;52.37;35.67;;;1.80;99.90;;;;;;5095264;28;20203;-58
2022/01/16 00:19:42;;;;;;;50.33;34.27;;;1.80;99.90;;;;;;5112510;28;20506;-58
2022/01/16 00:22:13;;;;;;;51.57;34.67;;;1.80;99.90;;;;;;5113705;28;20182;-58
2022/01/16 00:24:39;;;;;;;50.03;34.30;;;1.80;99.90;;;;;;5113568;28;20170;-58
2022/01/16 00:27:06;;;;;;;50.03;34.63;;;1.80;99.90;;;;;;5114379;28;20530;-58
2022/01/16 00:29:31;;;;;;;53.10;35.37;;;1.80;99.90;;;;;;5116286;28;20176;-58
2022/01/16 00:31:57;;;;;;;54.67;36.63;;;1.80;99.90;;;;;;5117574;28;20176;-59
2022/01/16 00:34:23;;;;;;;51.40;35.07;;;1.80;99.90;;;;;;5117694;28;20619;-58
2022/01/16 00:36:49;;;;;;;53.60;35.87;;;1.80;99.90;;;;;;5116259;28;20183;-58
2022/01/16 00:39:15;;;;;;;58.93;37.73;;;1.80;99.90;;;;;;5116533;28;20181;-59
2022/01/16 00:41:42;;;;;;;56.37;37.73;;;1.80;99.90;;;;;;5117484;28;20184;-58
2022/01/16 00:44:08;;;;;;;54.13;35.93;;;1.80;99.90;;;;;;5117657;28;20611;-58
2022/01/16 00:46:34;;;;;;;62.13;38.47;;;1.90;99.90;;;;;;5117528;28;20197;-58
2022/01/16 00:49:00;;;;;;;56.87;38.00;;;2.00;99.90;;;;;;5117220;28;20664;-58
2022/01/16 00:51:26;;;;;;;40.10;27.77;;;1.90;99.90;;;;;;5115985;28;20239;-58
2022/01/16 00:53:51;;;;;;;55.63;37.27;;;1.80;99.90;;;;;;5098719;28;20181;-58
2022/01/16 00:56:17;;;;;;;55.50;38.83;;;1.90;99.90;;;;;;5115909;28;20645;-58
2022/01/16 00:58:43;;;;;;;52.63;35.27;;;1.90;99.90;;;;;;5116753;28;20535;-58
2022/01/16 01:01:10;;;;;;;62.40;38.67;;;2.00;99.90;;;;;;5115660;28;20176;-58
2022/01/16 01:03:35;;;;;;;57.87;37.50;;;2.00;99.90;;;;;;5116848;28;20176;-58
2022/01/16 01:06:01;;;;;;;60.27;38.27;;;2.10;99.90;;;;;;5116603;28;20180;-58
2022/01/16 01:08:29;;;;;;;57.57;37.67;;;2.20;99.90;;;;;;5116893;28;20170;-58
2022/01/16 01:10:55;;;;;;;59.73;39.63;;;2.30;99.90;;;;;;5115604;28;20715;-58
2022/01/16 01:13:43;;;;;;;61.10;40.30;;;2.30;99.90;;;;;;5117247;28;20527;-58
2022/01/16 01:16:14;;;;;;;63.87;41.23;;;2.40;99.90;;;;;;5116571;28;20188;-58
2022/01/16 01:18:40;;;;;;;59.87;38.97;;;2.50;99.90;;;;;;5115376;28;20179;-58
2022/01/16 01:21:16;;;;;;;59.43;39.50;;;2.60;99.90;;;;;;5116556;28;20181;-58
2022/01/16 01:23:41;;;;;;;59.80;39.43;;;2.60;99.90;;;;;;5116509;28;20169;-58
2022/01/16 01:26:07;;;;;;;60.17;39.93;;;2.50;99.90;;;;;;5116747;28;20264;-58
2022/01/16 01:28:33;;;;;;;59.27;39.77;;;2.60;99.90;;;;;;5116591;28;20193;-58
2022/01/16 01:30:58;;;;;;;65.90;42.03;;;2.70;99.90;;;;;;5116542;28;20212;-58
2022/01/16 01:33:25;;;;;;;63.63;41.30;;;2.80;99.90;;;;;;5116600;28;20264;-58
2022/01/16 01:35:51;;;;;;;55.47;38.97;;;2.70;99.90;;;;;;5115145;28;20176;-58
2022/01/16 01:38:18;;;;;;;60.80;39.90;;;2.60;99.90;;;;;;5115613;28;20541;-58
2022/01/16 01:40:47;;;;;;;58.27;39.43;;;2.70;99.90;;;;;;5114577;28;20268;-58
2022/01/16 01:51:14;;;;;;;54.20;36.93;;;2.80;99.90;;;;;;5115659;28;20608;-58
2022/01/16 01:53:41;;;;;;;53.73;38.33;;;2.80;99.90;;;;;;5115878;28;20177;-58
2022/01/16 01:56:09;;;;;;;57.07;39.50;;;2.80;99.90;;;;;;5115622;28;20248;-58
2022/01/16 01:58:35;;;;;;;52.77;37.80;;;2.80;99.90;;;;;;5114602;28;20187;-58
2022/01/16 02:01:01;;;;;;;52.30;37.30;;;2.90;99.90;;;;;;5115881;28;20212;-58
2022/01/16 02:05:53;;;;;;;59.07;39.40;;;2.80;99.90;;;;;;5115718;28;20549;-58
2022/01/16 02:08:19;;;;;;;54.37;37.47;;;2.80;99.90;;;;;;5115721;28;20580;-58
2022/01/16 02:10:44;;;;;;;54.37;36.80;;;2.80;99.90;;;;;;5114289;28;20207;-58
2022/01/16 02:13:20;;;;;;;52.63;36.30;;;3.00;99.90;;;;;;5115628;27;20184;-58
2022/01/16 02:34:44;;;;;;;52.47;36.17;;;3.20;99.90;;;;;;5115157;28;20168;-58
2022/01/16 02:37:13;;;;;;;52.80;35.90;;;3.20;99.90;;;;;;5115139;28;20165;-58
2022/01/16 02:39:42;;;;;;;50.27;35.23;;;3.20;99.90;;;;;;5115130;28;20180;-58
2022/01/16 02:42:12;;;;;;;52.17;37.57;;;3.20;99.90;;;;;;5114941;28;20544;-58
2022/01/16 02:44:50;;;;;;;52.13;37.20;;;3.20;99.90;;;;;;5114709;28;20196;-58
2022/01/16 02:47:18;;;;;;;51.70;37.00;;;3.30;99.90;;;;;;5115146;28;20267;-58
2022/01/16 02:49:47;;;;;;;58.23;38.47;;;3.30;99.90;;;;;;5114537;28;20227;-58
2022/01/16 02:52:19;;;;;;;52.45;36.40;;;3.20;99.90;;;;;;5114856;28;20180;-58
2022/01/16 02:54:47;;;;;;;54.47;37.80;;;3.30;99.90;;;;;;5115116;28;20167;-58
2022/01/16 02:57:17;;;;;;;53.97;37.63;;;3.30;99.90;;;;;;5114726;28;20214;-58
2022/01/16 02:59:52;;;;;;;55.67;37.57;;;3.30;99.90;;;;;;5114472;28;20164;-58
2022/01/16 03:02:20;;;;;;;53.47;36.37;;;3.30;99.90;;;;;;5113412;28;20174;-58
2022/01/16 03:04:46;;;;;;;57.30;38.07;;;3.30;99.90;;;;;;5114332;28;20169;-58
2022/01/16 03:07:12;;;;;;;56.73;37.57;;;3.40;99.90;;;;;;5113429;28;20185;-58
2022/01/16 03:10:01;;;;;;;57.73;38.90;;;3.40;99.90;;;;;;5114430;28;20173;-58
2022/01/16 03:12:27;;;;;;;57.87;38.00;;;3.40;99.90;;;;;;5114544;28;20256;-58
2022/01/16 03:14:53;;;;;;;56.60;38.50;;;3.30;99.90;;;;;;5114424;28;20269;-58
2022/01/16 03:17:29;;;;;;;62.72;40.22;;;3.30;99.90;;;;;;5114419;28;20208;-58
2022/01/16 03:22:38;;;;;;;57.10;36.87;;;3.40;99.90;;;;;;5114308;28;20252;-58
2022/01/16 03:25:04;;;;;;;55.80;38.50;;;3.40;99.90;;;;;;5114262;28;20595;-58
2022/01/16 03:27:30;;;;;;;59.53;39.17;;;3.40;99.90;;;;;;5114194;28;20184;-58
2022/01/16 03:29:57;;;;;;;58.77;38.87;;;3.40;99.90;;;;;;5114125;28;20218;-58
2022/01/16 03:32:23;;;;;;;58.37;38.20;;;3.40;99.90;;;;;;5112803;28;20234;-58
2022/01/16 03:34:49;;;;;;;60.83;39.07;;;3.40;99.90;;;;;;5113040;28;20536;-58
2022/01/16 03:37:15;;;;;;;58.50;37.10;;;3.40;99.90;;;;;;5112955;28;20184;-58
2022/01/16 03:39:41;;;;;;;63.40;38.87;;;3.40;99.90;;;;;;5114049;28;20177;-58
2022/01/16 03:42:08;;;;;;;59.83;38.37;;;3.40;99.90;;;;;;5095949;28;20533;-58
2022/01/16 03:44:33;;;;;;;55.07;37.20;;;3.50;99.90;;;;;;5112843;28;20184;-58
2022/01/16 03:47:00;;;;;;;57.23;38.07;;;3.50;99.90;;;;;;5112607;28;20185;-58
2022/01/16 03:49:28;;;;;;;61.97;38.27;;;3.50;99.90;;;;;;5113890;28;20168;-58
2022/01/16 03:51:55;;;;;;;61.83;39.93;;;3.40;99.90;;;;;;5113996;28;20184;-58
2022/01/16 03:54:26;;;;;;;59.00;38.60;;;3.40;99.90;;;;;;5112482;28;20206;-58
2022/01/16 03:56:52;;;;;;;58.00;35.73;;;3.50;99.90;;;;;;5113718;28;20165;-58
2022/01/16 03:59:18;;;;;;;62.50;38.17;;;3.50;99.90;;;;;;5112924;28;20184;-58
2022/01/16 04:01:44;;;;;;;61.80;37.53;;;3.40;99.90;;;;;;5114007;28;20177;-58
2022/01/16 04:04:10;;;;;;;65.57;40.73;;;3.50;99.90;;;;;;5117768;28;20229;-58
2022/01/16 04:06:36;;;;;;;60.40;38.07;;;3.50;99.90;;;;;;5118027;28;20176;-58
2022/01/16 04:09:03;;;;;;;60.27;39.17;;;3.50;99.90;;;;;;5117986;28;20199;-58
2022/01/16 04:11:30;;;;;;;64.27;38.67;;;3.40;99.90;;;;;;5117911;28;20212;-58
2022/01/16 04:14:06;;;;;;;57.93;36.77;;;3.40;99.90;;;;;;5118565;28;20181;-58
2022/01/16 04:16:32;;;;;;;61.77;37.23;;;3.30;99.90;;;;;;5119018;27;20214;-59
2022/01/16 04:18:58;;;;;;;59.25;36.58;;;3.20;99.90;;;;;;5117830;28;20187;-58
2022/01/16 04:21:25;;;;;;;62.10;36.23;;;3.30;99.90;;;;;;5116274;28;20177;-58
2022/01/16 04:23:52;;;;;;;66.63;36.80;;;3.30;99.90;;;;;;5117778;27;20225;-58
2022/01/16 04:26:19;;;;;;;65.23;37.17;;;3.30;99.90;;;;;;5116495;28;20572;-58
2022/01/16 04:28:46;;;;;;;68.20;38.13;;;3.40;99.90;;;;;;5117572;28;20175;-58
2022/01/16 04:31:13;;;;;;;64.13;37.37;;;3.40;99.90;;;;;;5117517;28;20208;-58
2022/01/16 04:33:39;;;;;;;58.53;34.90;;;3.30;99.90;;;;;;5116086;28;20200;-58
2022/01/16 04:36:06;;;;;;;54.87;35.20;;;3.30;99.90;;;;;;5117212;28;20208;-58
2022/01/16 04:38:33;;;;;;;63.53;36.50;;;3.20;99.90;;;;;;5117261;28;20172;-58
2022/01/16 04:43:51;;;;;;;61.73;36.17;;;3.00;99.90;;;;;;5117364;28;20175;-58
2022/01/16 04:46:19;;;;;;;64.83;37.13;;;2.90;99.90;;;;;;5117152;28;20546;-58
2022/01/16 04:48:46;;;;;;;65.67;38.40;;;3.00;99.90;;;;;;5117229;27;20169;-58
2022/01/16 04:51:12;;;;;;;68.33;38.33;;;3.10;99.90;;;;;;5117174;28;20667;-58
2022/01/16 04:53:39;;;;;;;71.50;40.77;;;3.10;99.90;;;;;;5116873;28;20241;-58
2022/01/16 04:56:06;;;;;;;64.67;37.90;;;3.10;99.90;;;;;;5116712;28;20173;-58
2022/01/16 04:58:32;;;;;;;70.83;38.37;;;3.20;99.90;;;;;;5117030;28;20177;-58
2022/01/16 05:00:58;;;;;;;69.53;38.37;;;3.20;99.90;;;;;;5117045;28;20212;-58
2022/01/16 05:03:25;;;;;;;65.73;38.10;;;3.20;99.90;;;;;;5116649;28;20207;-58
2022/01/16 05:05:52;;;;;;;65.43;37.40;;;3.20;99.90;;;;;;5116970;28;20593;-58
2022/01/16 05:08:17;;;;;;;68.27;37.27;;;3.20;99.90;;;;;;5116635;28;20627;-58
2022/01/16 05:10:43;;;;;;;64.57;37.43;;;3.10;99.90;;;;;;5115534;28;20259;-58
2022/01/16 05:18:35;;;;;;;65.97;37.07;;;3.10;99.90;;;;;;5116741;28;20180;-58
2022/01/16 05:21:01;;;;;;;68.10;38.17;;;3.20;99.90;;;;;;5116137;28;20262;-58
2022/01/16 05:23:28;;;;;;;66.37;36.77;;;3.20;99.90;;;;;;5116603;28;20184;-58
2022/01/16 05:25:54;;;;;;;75.47;39.83;;;3.30;99.90;;;;;;5115244;28;20181;-58
2022/01/16 05:28:20;;;;;;;75.40;39.63;;;3.40;99.90;;;;;;5115025;28;20245;-58
2022/01/16 05:30:46;;;;;;;72.30;40.83;;;3.40;99.90;;;;;;5116374;28;20235;-58
2022/01/16 05:33:11;;;;;;;71.83;39.17;;;3.20;99.90;;;;;;5116300;28;20176;-58
2022/01/16 05:35:37;;;;;;;77.40;40.13;;;3.30;99.90;;;;;;5114846;28;20264;-58
2022/01/16 05:38:03;;;;;;;77.03;39.83;;;3.30;99.90;;;;;;5115130;28;20204;-58
2022/01/16 05:40:29;;;;;;;76.37;41.20;;;3.30;99.90;;;;;;5115183;28;20657;-58
2022/01/16 05:42:55;;;;;;;78.03;39.93;;;3.30;99.90;;;;;;5097869;28;20244;-58
2022/01/16 05:45:21;;;;;;;77.53;41.20;;;3.30;99.90;;;;;;5115329;28;20668;-58
2022/01/16 05:47:47;;;;;;;76.77;40.63;;;3.30;99.90;;;;;;5115809;28;20180;-58
2022/01/16 05:50:13;;;;;;;77.00;40.80;;;3.30;99.90;;;;;;5115449;28;20573;-58
2022/01/16 05:52:40;;;;;;;76.33;39.13;;;3.30;99.90;;;;;;5116302;28;20192;-58
2022/01/16 05:55:06;;;;;;;74.33;41.20;;;3.40;99.90;;;;;;5115754;28;20172;-58
2022/01/16 05:57:32;;;;;;;73.53;40.13;;;3.50;99.90;;;;;;5115652;28;20191;-58
2022/01/16 05:59:58;;;;;;;79.50;40.23;;;3.60;99.90;;;;;;5116317;28;20217;-58
2022/01/16 06:02:25;;;;;;;79.10;39.37;;;3.60;99.90;;;;;;5115862;28;20503;-58
2022/01/16 06:04:51;;;;;;;79.13;41.60;;;3.60;99.90;;;;;;5116152;28;20175;-58
2022/01/16 06:07:17;;;;;;;82.67;41.07;;;3.60;99.90;;;;;;5114500;28;20176;-58
2022/01/16 06:09:42;;;;;;;75.87;40.33;;;3.40;99.90;;;;;;5115534;28;20184;-58
2022/01/16 06:12:08;;;;;;;77.93;40.93;;;3.40;99.90;;;;;;5114493;28;20181;-58
2022/01/16 06:14:34;;;;;;;75.37;40.60;;;3.50;99.90;;;;;;5114406;28;20200;-58
2022/01/16 06:17:00;;;;;;;78.13;39.73;;;3.50;99.90;;;;;;5115526;28;20257;-58
2022/01/16 06:19:25;;;;;;;74.87;40.47;;;3.60;99.90;;;;;;5115425;28;20185;-58
2022/01/16 06:21:51;;;;;;;83.53;40.10;;;3.50;99.90;;;;;;5115108;28;20173;-58
2022/01/16 06:24:17;;;;;;;78.20;39.27;;;3.60;99.90;;;;;;5114045;28;20678;-58
2022/01/16 06:26:43;;;;;;;77.22;39.63;;;3.70;99.90;;;;;;5114960;28;20201;-58
2022/01/16 06:29:09;;;;;;;82.93;41.40;;;3.80;99.90;;;;;;5115254;28;20545;-58
2022/01/16 06:31:35;;;;;;;78.53;38.97;;;3.80;99.90;;;;;;5115135;28;20204;-58
2022/01/16 06:34:02;;;;;;;77.10;38.90;;;3.70;99.90;;;;;;5115163;28;20576;-58
2022/01/16 06:36:28;;;;;;;78.40;40.67;;;3.80;99.90;;;;;;5115038;28;20236;-58
2022/01/16 06:38:55;;;;;;;72.27;37.83;;;3.70;99.90;;;;;;5115116;28;20615;-58
2022/01/16 06:41:21;;;;;;;72.43;37.90;;;3.70;99.90;;;;;;5115004;28;20621;-58
2022/01/16 06:43:47;;;;;;;78.47;39.70;;;3.70;99.90;;;;;;5115222;28;20241;-58
2022/01/16 06:46:12;;;;;;;81.47;39.67;;;3.80;99.90;;;;;;5113535;28;20180;-58
2022/01/16 06:48:40;;;;;;;77.17;38.50;;;3.90;99.90;;;;;;5114831;28;20812;-58
2022/01/16 06:51:07;;;;;;;88.50;40.57;;;3.90;99.90;;;;;;5114638;28;20221;-58
2022/01/16 06:53:33;;;;;;;86.20;39.87;;;4.00;99.90;;;;;;5114660;28;20556;-58
2022/01/16 06:55:59;;;;;;;80.33;39.87;;;4.00;99.90;;;;;;5114661;28;20181;-58
2022/01/16 06:58:25;;;;;;;78.75;38.78;;;4.10;99.90;;;;;;5113461;28;20200;-58
2022/01/16 07:00:51;;;;;;;78.80;39.20;;;4.10;99.90;;;;;;5114607;28;20215;-58
2022/01/16 07:03:17;;;;;;;86.40;39.03;;;4.10;99.90;;;;;;5113103;28;20172;-58
2022/01/16 07:05:43;;;;;;;79.27;39.13;;;4.20;99.90;;;;;;5113428;28;20174;-58
2022/01/16 07:08:09;;;;;;;86.00;42.08;;;4.20;99.90;;;;;;5114493;28;20622;-58
2022/01/16 07:10:35;;;;;;;88.20;43.20;;;4.10;99.90;;;;;;5114329;28;20197;-58
2022/01/16 07:13:01;;;;;;;87.47;40.78;;;4.10;99.90;;;;;;5114346;28;20180;-58
2022/01/16 07:15:27;;;;;;;93.20;42.73;;;4.10;99.90;;;;;;5114334;28;20271;-58
2022/01/16 07:17:54;;;;;;;104.53;46.10;;;4.20;99.90;;;;;;5113982;28;20717;-58
2022/01/16 07:20:20;;;;;;;79.95;40.45;;;4.20;99.90;;;;;;5102938;27;20203;-58
2022/01/16 07:22:46;;;;;;;87.10;41.63;;;4.30;99.90;;;;;;5116543;27;20216;-58
2022/01/16 07:25:13;;;;;;;85.22;40.53;;;4.20;99.90;;;;;;5134672;27;20184;-58
2022/01/16 07:27:39;;;;;;;83.80;41.60;;;4.20;99.90;;;;;;5133547;27;20184;-58
2022/01/16 07:30:06;;;;;;;78.17;40.40;;;4.30;99.90;;;;;;5134612;27;20199;-58
2022/01/16 07:32:31;;;;;;;88.77;41.77;;;4.30;99.90;;;;;;5134506;27;20209;-58
2022/01/16 07:34:57;;;;;;;83.97;40.03;;;4.30;99.90;;;;;;5118178;27;20210;-59
2022/01/16 07:37:23;;;;;;;85.17;44.77;;;4.40;99.90;;;;;;5111857;28;20236;-58
2022/01/16 07:39:49;;;;;;;83.28;41.03;;;4.30;99.90;;;;;;5113998;28;20189;-59
2022/01/16 07:42:14;;;;;;;84.27;40.40;;;4.40;99.90;;;;;;5111705;28;20180;-58
2022/01/16 07:44:40;;;;;;;76.13;40.85;;;4.40;99.90;;;;;;5111271;28;20212;-58
2022/01/16 07:47:06;;;;;;;78.47;40.03;;;4.40;99.90;;;;;;5113524;28;20188;-59
2022/01/16 07:49:32;;;;;;;85.13;40.63;;;4.40;99.90;;;;;;5128736;27;20187;-58
2022/01/16 07:51:57;;;;;;;75.15;38.10;;;4.40;99.90;;;;;;5135566;27;20188;-58
2022/01/16 07:54:23;;;;;;;75.10;38.30;;;4.40;99.90;;;;;;5134775;28;20176;-58
2022/01/16 07:56:49;;;;;;;76.68;37.92;;;4.40;99.90;;;;;;5134370;27;20191;-58
2022/01/16 07:59:16;;;;;;;77.80;37.97;;;4.50;99.90;;;;;;5134330;27;20620;-58
2022/01/16 08:01:42;;;;;;;71.93;37.28;;;4.50;99.90;;;;;;5116322;28;20188;-58
2022/01/16 08:04:08;;;;;;;72.18;36.83;;;4.50;99.90;;;;;;5134423;27;20183;-58
2022/01/16 08:06:33;;;;;;;70.00;37.08;;;4.50;99.90;;;;;;5132870;27;20574;-58
2022/01/16 08:08:59;;;;;;;67.75;36.60;;;4.50;99.90;;;;;;5111006;28;20197;-58
2022/01/16 08:11:25;;;;;;;72.07;36.90;;;4.50;99.90;;;;;;5110722;28;20208;-58
2022/01/16 08:13:51;;;;;;;64.78;37.75;;;4.50;99.90;;;;;;5113542;28;20605;-58
2022/01/16 08:16:16;;;;;;;63.53;37.13;;;4.50;99.90;;;;;;5112090;28;20205;-58
2022/01/16 08:18:42;;;;;;;65.07;36.70;;;4.50;99.90;;;;;;5112165;28;20181;-58
2022/01/16 08:21:08;;;;;;;73.45;39.38;;;4.50;99.90;;;;;;5113060;28;20177;-58
2022/01/16 08:23:33;;;;;;;71.07;38.07;;;4.60;99.90;;;;;;5112796;28;20538;-58
2022/01/16 08:25:59;;;;;;;64.43;34.58;;;4.70;99.90;;;;;;5113432;28;20184;-58
2022/01/16 08:28:25;;;;;;;64.72;36.65;;;4.70;99.90;;;;;;5112387;28;20682;-58
2022/01/16 08:30:51;;;;;;;64.13;34.70;;;4.70;99.90;;;;;;5113530;28;20211;-59
2022/01/16 08:33:17;;;;;;;64.15;36.25;;;4.70;99.90;;;;;;5112751;28;20176;-58
2022/01/16 08:35:43;;;;;;;63.08;35.05;;;4.60;99.90;;;;;;5111853;28;20196;-58
2022/01/16 08:38:09;;;;;;;64.07;34.50;;;4.70;99.90;;;;;;5095057;28;20180;-58
2022/01/16 08:40:35;;;;;;;63.08;34.97;;;4.70;99.90;;;;;;5113073;28;20211;-59
2022/01/16 08:43:08;;;;;;;64.40;36.17;;;4.80;99.90;;;;;;5113037;28;20181;-58
2022/01/16 08:45:35;;;;;;;63.25;35.70;;;4.80;99.90;;;;;;5112743;28;20169;-58
2022/01/16 08:48:01;;;;;;;65.80;34.53;;;4.90;99.90;;;;;;5113805;27;20177;-58
2022/01/16 08:50:27;;;;;;;60.45;35.78;;;4.90;99.90;;;;;;5136395;27;20204;-58
2022/01/16 08:52:53;;;;;;;59.42;34.95;;;4.90;99.90;;;;;;5137771;27;20236;-58
2022/01/16 08:55:19;;;;;;;64.95;34.35;;;4.90;99.90;;;;;;5137380;27;20587;-58
2022/01/16 08:57:44;;;;;;;67.47;36.97;;;4.90;99.90;;;;;;5137835;27;20251;-58
2022/01/16 09:00:11;;;;;;;72.70;40.60;;;4.80;99.90;;;;;;5136275;27;20274;-58
2022/01/16 09:02:37;;;;;;;68.70;40.90;;;4.90;99.90;;;;;;5137491;27;20175;-58
2022/01/16 09:05:04;;;;;;;71.55;40.47;;;4.90;99.90;;;;;;5137536;27;20167;-58
2022/01/16 09:07:30;;;;;;;63.58;36.67;;;4.90;99.90;;;;;;5136155;27;20589;-58
2022/01/16 09:09:57;;;;;;;66.32;38.08;;;5.00;99.90;;;;;;5137180;27;20203;-58
2022/01/16 09:12:24;;;;;;;68.38;37.20;;;4.80;99.90;;;;;;5136161;27;20187;-58
2022/01/16 09:14:49;;;;;;;74.63;40.03;;;4.90;99.90;;;;;;5137374;27;20176;-58
2022/01/16 09:17:15;;;;;;;67.88;38.00;;;5.00;99.90;;;;;;5136085;27;20249;-58
2022/01/16 09:19:42;;;;;;;65.03;38.60;;;5.00;99.90;;;;;;5135559;27;20185;-58
2022/01/16 09:22:08;;;;;;;65.00;36.20;;;4.90;99.90;;;;;;5137526;27;20183;-58
2022/01/16 09:24:34;;;;;;;64.88;35.17;;;5.10;99.90;;;;;;5136891;27;20172;-58
2022/01/16 09:27:00;;;;;;;63.38;34.25;;;5.00;99.90;;;;;;5137078;27;20179;-58
2022/01/16 09:29:25;;;;;;;58.28;35.28;;;5.00;99.90;;;;;;5137075;27;20222;-58
2022/01/16 09:31:51;;;;;;;59.00;34.88;;;5.00;99.90;;;;;;5135628;27;20218;-58
2022/01/16 09:34:17;;;;;;;57.05;33.60;;;5.10;99.90;;;;;;5137010;27;20184;-58
2022/01/16 09:36:43;;;;;;;54.97;31.70;;;5.10;99.90;;;;;;5137010;27;20214;-59
2022/01/16 09:39:09;;;;;;;57.05;34.72;;;5.10;99.90;;;;;;5137016;27;20182;-58
2022/01/16 09:41:35;;;;;;;55.90;31.30;;;5.10;99.90;;;;;;5137152;27;20176;-59
2022/01/16 09:44:01;;;;;;;53.40;35.50;;;5.00;99.90;;;;;;5135525;27;20274;-58
2022/01/16 09:46:27;;;;;;;54.97;33.38;;;5.00;99.90;;;;;;5136739;27;20239;-58
2022/01/16 09:48:52;;;;;;;55.65;31.27;;;5.10;99.90;;;;;;5136574;27;20180;-58
2022/01/16 09:51:18;;;;;;;55.85;33.10;;;5.00;99.90;;;;;;5136614;27;20267;-58
2022/01/16 09:53:44;;;;;;;53.70;33.23;;;5.00;99.90;;;;;;5135660;27;20180;-58
2022/01/16 09:56:10;;;;;;;58.45;32.67;;;5.00;99.90;;;;;;5136908;27;20186;-58
2022/01/16 09:58:37;;;;;;;56.38;32.78;;;5.10;99.90;;;;;;5136822;27;20627;-58
2022/01/16 10:01:03;;;;;;;56.08;34.45;;;5.00;99.90;;;;;;5135458;27;20678;-58
2022/01/16 10:03:39;;;;;;;56.13;31.40;;;4.90;99.90;;;;;;5136388;27;20613;-58
2022/01/16 10:06:20;;;;;;;59.45;33.92;;;5.10;99.90;;;;;;5136487;27;20165;-58
2022/01/16 10:08:47;;;;;;;55.43;33.43;;;5.00;99.90;;;;;;5135103;27;20160;-58
2022/01/16 10:11:37;;;;;;;53.37;30.87;;;5.10;99.90;;;;;;5136078;27;20192;-58
2022/01/16 10:14:25;;;;;;;52.83;29.83;;;5.00;99.90;;;;;;5136224;27;20171;-58
2022/01/16 10:16:50;;;;;;;56.67;33.23;;;5.10;99.90;;;;;;5135507;27;20210;-58
2022/01/16 10:19:27;;;;;;;58.28;34.63;;;5.00;99.90;;;;;;5135941;27;20183;-58
2022/01/16 10:21:55;;;;;;;56.05;31.20;;;5.10;99.90;;;;;;5136087;27;20167;-58
2022/01/16 10:24:20;;;;;;;55.17;31.87;;;5.00;99.90;;;;;;5135930;27;20179;-58
2022/01/16 10:26:48;;;;;;;57.53;33.53;;;5.10;99.90;;;;;;5135625;27;20172;-58
2022/01/16 10:29:19;;;;;;;61.78;37.15;;;5.10;99.90;;;;;;5136065;27;20168;-58
2022/01/16 10:31:46;;;;;;;62.33;35.70;;;5.10;99.90;;;;;;5132177;27;20703;-58
2022/01/16 10:34:31;;;;;;;56.45;36.15;;;5.20;99.90;;;;;;5135828;27;20191;-58
2022/01/16 10:36:58;;;;;;;54.60;32.38;;;5.10;99.90;;;;;;5135733;27;20168;-58
2022/01/16 10:39:23;;;;;;;55.27;31.73;;;5.20;99.90;;;;;;5135414;27;20176;-58
2022/01/16 10:42:15;;;;;;;55.85;34.25;;;5.20;99.90;;;;;;5134328;27;20217;-58
2022/01/16 10:44:41;;;;;;;52.40;34.33;;;5.00;99.90;;;;;;5135523;27;20187;-58
2022/01/16 10:47:28;;;;;;;55.20;33.85;;;5.10;99.90;;;;;;5135170;27;20187;-58
2022/01/16 10:49:58;;;;;;;50.80;33.13;;;5.20;99.90;;;;;;5135327;27;20703;-58
2022/01/16 10:52:24;;;;;;;48.22;31.52;;;5.30;99.90;;;;;;5134267;27;20182;-58
2022/01/16 10:54:50;;;;;;;50.45;33.80;;;5.30;99.90;;;;;;5134336;27;20180;-58
2022/01/16 10:57:24;;;;;;;49.15;32.47;;;5.20;99.90;;;;;;5135379;27;20186;-58
2022/01/16 11:00:02;;;;;;;45.72;30.65;;;5.20;99.90;;;;;;5135373;27;20160;-58
2022/01/16 11:02:30;;;;;;;40.87;29.27;;;5.20;99.90;;;;;;5135144;27;20175;-58
2022/01/16 11:05:11;;;;;;;38.60;30.83;;;5.20;99.90;;;;;;5134755;27;20668;-58
2022/01/16 11:07:37;;;;;;;42.72;29.58;;;5.30;99.90;;;;;;5135282;27;20156;-58
2022/01/16 11:10:36;;;;;;;42.78;30.80;;;5.40;99.90;;;;;;5134680;27;20632;-58
2022/01/16 11:13:08;;;;;;;42.05;28.73;;;5.30;99.90;;;;;;5135073;27;20203;-58
2022/01/16 11:15:36;;;;;;;39.35;28.30;;;5.40;99.90;;;;;;5135088;27;20157;-58
2022/01/16 11:18:03;;;;;;;40.95;28.92;;;5.40;99.90;;;;;;5135063;27;20659;-58
2022/01/16 11:20:33;;;;;;;37.40;26.92;;;5.50;99.90;;;;;;5135002;27;20180;-58
2022/01/16 11:23:06;;;;;;;37.90;27.55;;;5.50;99.90;;;;;;5134958;27;20647;-58
2022/01/16 11:25:36;;;;;;;38.20;28.50;;;5.50;99.90;;;;;;5133718;27;20243;-58
2022/01/16 11:28:05;;;;;;;41.50;28.80;;;5.40;99.90;;;;;;5135732;27;20176;-58
2022/01/16 11:30:34;;;;;;;38.97;27.92;;;5.40;99.90;;;;;;5136182;27;20199;-58
2022/01/16 11:33:00;;;;;;;37.40;27.63;;;5.30;99.90;;;;;;5134696;27;20179;-58
2022/01/16 11:35:28;;;;;;;35.22;27.30;;;5.40;99.90;;;;;;5134619;27;20183;-58
2022/01/16 11:37:55;;;;;;;35.95;27.17;;;5.40;99.90;;;;;;5134821;27;20609;-58
2022/01/16 11:40:31;;;;;;;37.50;26.13;;;5.50;99.90;;;;;;5134668;27;20225;-58
2022/01/16 11:43:23;;;;;;;39.63;28.25;;;5.60;99.90;;;;;;5134807;27;20171;-58
2022/01/16 11:46:06;;;;;;;37.65;28.70;;;5.50;99.90;;;;;;5134050;27;20570;-58
2022/01/16 11:48:40;;;;;;;38.20;27.52;;;5.40;99.90;;;;;;5134290;27;20629;-58
2022/01/16 11:51:25;;;;;;;37.28;29.08;;;5.60;99.90;;;;;;5134261;27;20722;-58
2022/01/16 11:54:06;;;;;;;34.38;27.67;;;5.70;99.90;;;;;;5134635;27;20216;-58
2022/01/16 11:56:38;;;;;;;39.30;28.40;;;5.70;99.90;;;;;;5134498;27;20166;-58
2022/01/16 11:59:15;;;;;;;42.17;27.52;;;5.70;99.90;;;;;;5134430;27;20177;-58
2022/01/16 12:01:54;;;;;;;39.30;26.48;;;5.50;99.90;;;;;;5134402;27;20270;-57
2022/01/16 12:04:31;;;;;;;41.17;28.33;;;5.60;99.90;;;;;;5133927;27;20640;-58
2022/01/16 12:07:12;;;;;;;36.63;28.30;;;5.70;99.90;;;;;;5134325;27;20176;-58
2022/01/16 12:09:51;;;;;;;40.03;28.55;;;5.70;99.90;;;;;;5134735;28;20162;-58
2022/01/16 12:12:16;;;;;;;38.38;27.10;;;5.40;99.90;;;;;;5134155;27;20630;-58
2022/01/16 12:15:06;;;;;;;37.38;29.55;;;5.50;99.90;;;;;;5133944;28;20176;-58
2022/01/16 12:17:42;;;;;;;40.05;27.90;;;5.50;99.90;;;;;;5134174;27;20207;-57
2022/01/16 12:20:21;;;;;;;42.60;29.33;;;5.60;99.90;;;;;;5134296;27;20202;-57
2022/01/16 12:23:08;;;;;;;41.50;28.50;;;5.60;99.90;;;;;;5133881;27;20221;-57
2022/01/16 12:25:55;;;;;;;39.42;28.02;;;5.60;99.90;;;;;;5137903;27;20179;-58
2022/01/16 12:28:24;;;;;;;40.55;28.83;;;5.70;99.90;;;;;;5138287;27;20163;-58
2022/01/16 12:31:02;;;;;;;38.60;29.95;;;5.60;99.90;;;;;;5138197;27;20199;-59
2022/01/16 12:33:42;;;;;;;40.95;28.60;;;5.70;99.90;;;;;;5137064;27;20495;-58
2022/01/16 12:36:18;;;;;;;42.58;28.17;;;5.60;99.90;;;;;;5138171;27;20221;-58
2022/01/16 12:38:53;;;;;;;38.45;28.63;;;5.60;99.90;;;;;;5137843;27;20164;-58
2022/01/16 12:41:30;;;;;;;40.90;28.55;;;5.60;99.90;;;;;;5138032;27;20171;-58
2022/01/16 12:44:08;;;;;;;41.08;28.27;;;5.60;99.90;;;;;;5136752;27;20167;-58
2022/01/16 12:46:43;;;;;;;41.15;29.13;;;5.60;99.90;;;;;;5137871;27;20587;-58
2022/01/16 12:49:15;;;;;;;41.30;29.00;;;5.60;99.90;;;;;;5137900;27;20232;-57
2022/01/16 12:51:43;;;;;;;41.40;28.13;;;5.60;99.90;;;;;;5137687;27;20199;-58
2022/01/16 12:54:09;;;;;;;41.85;28.67;;;5.70;99.90;;;;;;5137668;27;20183;-58
2022/01/16 12:56:48;;;;;;;42.65;30.88;;;5.70;99.90;;;;;;5137357;27;20184;-58
2022/01/16 12:59:25;;;;;;;45.63;29.25;;;5.80;99.90;;;;;;5137639;27;20251;-58
2022/01/16 13:01:53;;;;;;;42.95;29.42;;;5.80;99.90;;;;;;5137419;27;20566;-58
2022/01/16 13:04:20;;;;;;;40.38;29.42;;;5.90;99.90;;;;;;5137497;27;20183;-58
2022/01/16 13:06:46;;;;;;;45.20;30.20;;;6.00;99.90;;;;;;5137521;27;20195;-58
2022/01/16 13:09:12;;;;;;;44.60;30.58;;;6.00;99.90;;;;;;5137852;27;20200;-58
2022/01/16 13:11:43;;;;;;;41.22;28.30;;;6.10;99.90;;;;;;5137576;27;20211;-58
2022/01/16 13:14:14;;;;;;;40.55;28.83;;;6.10;99.90;;;;;;5139281;27;20176;-58
2022/01/16 13:16:42;;;;;;;45.28;28.65;;;5.90;99.90;;;;;;5140666;27;20291;-58
2022/01/16 13:19:16;;;;;;;43.25;28.88;;;6.00;99.90;;;;;;5138701;27;20176;-58
2022/01/16 13:21:47;;;;;;;37.03;28.95;;;6.00;99.90;;;;;;5136930;27;20164;-58
2022/01/16 13:24:49;;;;;;;40.90;28.58;;;5.90;99.90;;;;;;5135395;27;20622;-58
2022/01/16 13:27:15;;;;;;;41.20;28.90;;;5.80;99.90;;;;;;5122941;27;20573;-58